Time;durP1;ratioP1;P1;durP2;ratioP2;P2;SDS_P1;SDS_P2;PMS_P1;PMS_P2;Temp;Humidity;BMP_temperature;BMP_pressure;BME280_temperature;BME280_humidity;BME280_pressure;Samples;Min_cycle;Max_cycle;Signal;HPM_P1;HPM_P2
2023/12/05 00:01:50;;;;;;;13.75;7.45;;;;;;;;;;5754352;29;20417;-78
2023/12/05 00:04:42;;;;;;;19.98;7.90;;;;;;;;;;5769981;28;20051;-78
2023/12/05 00:07:34;;;;;;;71.50;19.77;;;;;;;;;;5769994;28;20154;-78
2023/12/05 00:10:25;;;;;;;35.65;12.07;;;;;;;;;;5756847;28;20086;-79
2023/12/05 00:13:15;;;;;;;25.17;8.82;;;;;;;;;;5774118;28;20061;-78
2023/12/05 00:16:08;;;;;;;17.30;8.73;;;;;;;;;;5775341;28;20067;-79
2023/12/05 00:19:00;;;;;;;19.60;9.57;;;;;;;;;;5775822;28;20497;-78
2023/12/05 00:21:51;;;;;;;25.85;11.45;;;;;;;;;;5775454;28;20070;-79
2023/12/05 00:24:42;;;;;;;12.70;6.13;;;;;;;;;;5773840;28;20417;-79
2023/12/05 00:27:32;;;;;;;26.75;9.77;;;;;;;;;;5773732;28;20497;-79
2023/12/05 00:30:23;;;;;;;34.15;10.98;;;;;;;;;;5757902;28;20047;-78
2023/12/05 00:33:14;;;;;;;31.33;10.88;;;;;;;;;;5773646;28;20760;-78
2023/12/05 00:36:08;;;;;;;25.85;11.48;;;;;;;;;;5773680;28;20055;-79
2023/12/05 00:38:59;;;;;;;20.55;8.73;;;;;;;;;;5774148;28;20055;-78
2023/12/05 00:41:50;;;;;;;12.85;8.02;;;;;;;;;;5773843;28;20047;-78
2023/12/05 00:44:40;;;;;;;10.82;7.13;;;;;;;;;;5757433;28;20044;-79
2023/12/05 00:47:31;;;;;;;15.18;7.50;;;;;;;;;;5773631;28;20524;-78
2023/12/05 00:50:22;;;;;;;18.63;10.32;;;;;;;;;;5773257;28;20047;-78
2023/12/05 00:53:24;;;;;;;11.25;7.03;;;;;;;;;;5773451;28;20424;-78
2023/12/05 00:56:14;;;;;;;27.85;8.57;;;;;;;;;;5773235;28;20051;-78
2023/12/05 00:59:05;;;;;;;23.35;9.18;;;;;;;;;;5773084;28;20055;-79
2023/12/05 01:01:56;;;;;;;19.17;9.90;;;;;;;;;;5771553;28;20050;-79
2023/12/05 01:04:47;;;;;;;20.08;8.18;;;;;;;;;;5765206;28;20394;-79
2023/12/05 01:07:38;;;;;;;24.17;9.57;;;;;;;;;;5774247;28;20449;-79
2023/12/05 01:10:28;;;;;;;14.38;7.60;;;;;;;;;;5772980;28;20505;-78
2023/12/05 01:13:19;;;;;;;9.93;5.90;;;;;;;;;;5757160;28;20489;-78
2023/12/05 01:16:11;;;;;;;15.45;7.68;;;;;;;;;;5783664;28;20073;-78
2023/12/05 01:19:02;;;;;;;16.67;7.07;;;;;;;;;;5788650;28;20047;-78
2023/12/05 01:21:52;;;;;;;31.70;7.90;;;;;;;;;;5772930;28;20101;-79
2023/12/05 01:24:43;;;;;;;20.13;8.70;;;;;;;;;;5772688;28;20047;-78
2023/12/05 01:27:34;;;;;;;15.30;7.47;;;;;;;;;;5772574;28;20051;-78
2023/12/05 01:30:25;;;;;;;17.20;6.18;;;;;;;;;;5785408;28;20411;-79
2023/12/05 01:33:16;;;;;;;14.23;6.82;;;;;;;;;;5773765;28;20055;-78
2023/12/05 01:36:10;;;;;;;14.93;6.97;;;;;;;;;;5773612;28;20051;-78
2023/12/05 01:39:01;;;;;;;10.13;5.45;;;;;;;;;;5756575;28;20102;-79
2023/12/05 01:41:52;;;;;;;15.60;7.20;;;;;;;;;;5772793;28;20055;-78
2023/12/05 01:44:43;;;;;;;11.45;6.30;;;;;;;;;;5772222;28;20046;-78
2023/12/05 01:47:39;;;;;;;14.25;8.10;;;;;;;;;;5786064;28;20394;-78
2023/12/05 01:50:32;;;;;;;16.17;7.47;;;;;;;;;;5772309;28;20043;-78
2023/12/05 01:53:23;;;;;;;21.00;7.47;;;;;;;;;;5771819;28;20048;-78
2023/12/05 01:56:14;;;;;;;15.50;7.00;;;;;;;;;;5771763;28;20055;-78
2023/12/05 01:59:06;;;;;;;16.65;7.10;;;;;;;;;;5773312;28;20527;-79
2023/12/05 02:01:56;;;;;;;15.63;7.03;;;;;;;;;;5772248;28;20047;-78
2023/12/05 02:04:48;;;;;;;9.73;5.90;;;;;;;;;;5771886;28;20073;-78
2023/12/05 02:07:39;;;;;;;12.18;7.07;;;;;;;;;;5772956;28;20047;-78
2023/12/05 02:10:30;;;;;;;11.38;5.85;;;;;;;;;;5771762;28;20043;-79
2023/12/05 02:13:21;;;;;;;13.65;8.27;;;;;;;;;;5755815;28;20062;-78
2023/12/05 02:16:23;;;;;;;17.13;6.95;;;;;;;;;;5771495;28;20047;-78
2023/12/05 02:19:42;;;;;;;12.00;6.30;;;;;;;;;;5771499;28;20070;-78
2023/12/05 02:22:36;;;;;;;10.38;6.43;;;;;;;;;;5787357;28;20122;-78
2023/12/05 02:25:59;;;;;;;16.02;7.60;;;;;;;;;;5772670;28;20058;-78
2023/12/05 02:28:50;;;;;;;12.70;6.35;;;;;;;;;;5760767;28;20191;-78
2023/12/05 02:31:41;;;;;;;21.77;8.32;;;;;;;;;;5754841;28;20054;-78
2023/12/05 02:34:32;;;;;;;10.82;6.03;;;;;;;;;;5771335;28;20047;-78
2023/12/05 02:37:38;;;;;;;15.57;8.80;;;;;;;;;;5783558;28;20122;-78
2023/12/05 02:40:46;;;;;;;17.85;8.23;;;;;;;;;;5772409;28;20050;-78
2023/12/05 02:43:43;;;;;;;25.83;13.85;;;;;;;;;;5783826;28;20043;-78
2023/12/05 02:46:37;;;;;;;24.15;12.27;;;;;;;;;;5771307;28;20402;-78
2023/12/05 02:49:28;;;;;;;19.08;10.20;;;;;;;;;;5783718;28;20059;-78
2023/12/05 02:52:19;;;;;;;14.73;7.70;;;;;;;;;;5786917;28;20051;-78
2023/12/05 02:55:10;;;;;;;18.30;8.10;;;;;;;;;;5770918;28;20055;-78
2023/12/05 02:58:01;;;;;;;14.68;6.93;;;;;;;;;;5772142;28;20058;-78
2023/12/05 03:00:52;;;;;;;14.20;6.65;;;;;;;;;;5755449;28;20055;-78
2023/12/05 03:03:43;;;;;;;11.63;6.30;;;;;;;;;;5771897;28;20742;-78
2023/12/05 03:06:34;;;;;;;22.33;8.32;;;;;;;;;;5770693;28;20069;-78
2023/12/05 03:09:24;;;;;;;22.65;5.97;;;;;;;;;;5783038;28;20051;-78
2023/12/05 03:12:15;;;;;;;13.38;7.53;;;;;;;;;;5770562;28;20234;-78
2023/12/05 03:15:07;;;;;;;17.35;7.15;;;;;;;;;;5786538;28;20080;-78
2023/12/05 03:17:57;;;;;;;22.42;9.05;;;;;;;;;;5772005;28;20047;-78
2023/12/05 03:20:48;;;;;;;12.18;6.43;;;;;;;;;;5754719;28;20050;-78
2023/12/05 03:23:39;;;;;;;17.52;7.68;;;;;;;;;;5784939;28;20050;-78
2023/12/05 03:26:30;;;;;;;20.38;7.68;;;;;;;;;;5754485;28;20045;-78
2023/12/05 03:29:21;;;;;;;18.52;6.80;;;;;;;;;;5771597;28;20062;-78
2023/12/05 03:32:12;;;;;;;20.63;10.68;;;;;;;;;;5771688;28;20047;-78
2023/12/05 03:35:04;;;;;;;15.00;7.10;;;;;;;;;;5754606;28;20061;-78
2023/12/05 03:37:55;;;;;;;16.80;6.88;;;;;;;;;;5770690;28;20421;-78
2023/12/05 03:40:45;;;;;;;9.70;5.78;;;;;;;;;;5770206;28;20054;-78
2023/12/05 03:43:36;;;;;;;17.10;8.65;;;;;;;;;;5768550;28;20137;-78
2023/12/05 03:46:27;;;;;;;17.50;6.43;;;;;;;;;;5774522;28;20059;-78
2023/12/05 03:49:19;;;;;;;14.00;7.75;;;;;;;;;;5758868;28;20058;-78
2023/12/05 03:52:09;;;;;;;18.92;8.25;;;;;;;;;;5776103;28;20133;-78
2023/12/05 03:55:00;;;;;;;19.50;7.50;;;;;;;;;;5774677;28;20051;-78
2023/12/05 03:57:51;;;;;;;13.25;6.88;;;;;;;;;;5776371;28;20369;-78
2023/12/05 04:00:42;;;;;;;18.35;8.18;;;;;;;;;;5758605;28;20047;-78
2023/12/05 04:03:34;;;;;;;22.77;8.45;;;;;;;;;;5758584;28;20047;-78
2023/12/05 04:06:25;;;;;;;15.88;6.55;;;;;;;;;;5786883;28;20048;-78
2023/12/05 04:09:16;;;;;;;29.90;8.98;;;;;;;;;;5774392;28;20067;-78
2023/12/05 04:12:07;;;;;;;14.45;7.50;;;;;;;;;;5784688;28;20051;-78
2023/12/05 04:14:58;;;;;;;22.05;8.68;;;;;;;;;;5774614;28;20051;-78
2023/12/05 04:17:48;;;;;;;29.92;7.07;;;;;;;;;;5774025;28;20047;-78
2023/12/05 04:20:39;;;;;;;16.58;7.70;;;;;;;;;;5788760;28;20407;-78
2023/12/05 04:23:30;;;;;;;16.77;7.05;;;;;;;;;;5775350;28;20043;-78
2023/12/05 04:26:21;;;;;;;11.48;5.93;;;;;;;;;;5774071;28;20062;-78
2023/12/05 04:29:12;;;;;;;19.17;7.90;;;;;;;;;;5758161;28;20401;-78
2023/12/05 04:32:03;;;;;;;17.55;8.48;;;;;;;;;;5783535;28;20077;-78
2023/12/05 04:34:53;;;;;;;20.38;7.95;;;;;;;;;;5758400;28;20039;-78
2023/12/05 04:37:45;;;;;;;20.10;9.20;;;;;;;;;;5774954;28;20043;-78
2023/12/05 04:40:36;;;;;;;21.27;8.57;;;;;;;;;;5774966;28;20043;-78
2023/12/05 04:43:26;;;;;;;11.35;6.80;;;;;;;;;;5773722;28;20411;-77
2023/12/05 04:46:18;;;;;;;19.13;9.52;;;;;;;;;;5774754;28;20051;-78
2023/12/05 04:49:09;;;;;;;23.95;9.60;;;;;;;;;;5773634;28;20053;-78
2023/12/05 04:52:00;;;;;;;24.52;8.55;;;;;;;;;;5758325;28;20117;-78
2023/12/05 04:54:51;;;;;;;28.60;11.60;;;;;;;;;;5773302;28;20049;-78
2023/12/05 04:57:42;;;;;;;32.35;12.40;;;;;;;;;;5757437;28;20047;-78
2023/12/05 05:00:34;;;;;;;25.90;8.80;;;;;;;;;;5757630;28;20050;-78
2023/12/05 05:03:25;;;;;;;27.25;8.38;;;;;;;;;;5773296;28;20516;-78
2023/12/05 05:06:16;;;;;;;26.15;10.88;;;;;;;;;;5773193;28;20055;-79
2023/12/05 05:09:07;;;;;;;23.25;10.70;;;;;;;;;;5757274;28;20055;-78
2023/12/05 05:11:58;;;;;;;15.30;7.82;;;;;;;;;;5789440;28;20059;-79
2023/12/05 05:14:49;;;;;;;13.88;7.40;;;;;;;;;;5757034;28;20044;-78
2023/12/05 05:17:40;;;;;;;23.20;10.45;;;;;;;;;;5772898;28;20112;-78
2023/12/05 05:20:30;;;;;;;31.65;9.52;;;;;;;;;;5774129;28;20501;-78
2023/12/05 05:23:21;;;;;;;22.33;9.10;;;;;;;;;;5773982;28;20049;-78
2023/12/05 05:26:14;;;;;;;30.67;9.82;;;;;;;;;;5772657;28;20070;-78
2023/12/05 05:29:04;;;;;;;19.52;8.38;;;;;;;;;;5782389;28;20162;-78
2023/12/05 05:31:59;;;;;;;17.17;7.40;;;;;;;;;;5774428;28;20047;-78
2023/12/05 05:34:49;;;;;;;17.77;6.43;;;;;;;;;;5756776;28;20111;-78
2023/12/05 05:37:40;;;;;;;16.50;7.78;;;;;;;;;;5787173;28;20043;-78
2023/12/05 05:40:31;;;;;;;15.80;6.85;;;;;;;;;;5772282;28;20055;-78
2023/12/05 05:43:22;;;;;;;14.65;7.85;;;;;;;;;;5784622;28;20054;-78
2023/12/05 05:46:13;;;;;;;13.18;4.57;;;;;;;;;;5772149;28;20047;-78
2023/12/05 05:49:03;;;;;;;11.40;6.90;;;;;;;;;;5772305;28;20408;-78
2023/12/05 05:51:54;;;;;;;13.57;7.32;;;;;;;;;;5772804;28;20504;-78
2023/12/05 05:54:49;;;;;;;16.85;6.85;;;;;;;;;;5773143;28;20046;-78
2023/12/05 05:57:40;;;;;;;16.65;7.78;;;;;;;;;;5770913;28;20043;-78
2023/12/05 06:00:31;;;;;;;12.02;6.47;;;;;;;;;;5756169;28;20047;-78
2023/12/05 06:03:23;;;;;;;20.30;8.15;;;;;;;;;;5771892;28;20643;-78
2023/12/05 06:06:14;;;;;;;12.23;6.45;;;;;;;;;;5782410;28;20062;-78
2023/12/05 06:09:05;;;;;;;10.50;6.82;;;;;;;;;;5771231;28;20055;-78
2023/12/05 06:11:56;;;;;;;10.77;6.00;;;;;;;;;;5756512;28;20044;-78
2023/12/05 06:14:47;;;;;;;10.70;5.57;;;;;;;;;;5773163;28;20047;-78
2023/12/05 06:17:37;;;;;;;15.73;7.57;;;;;;;;;;5771539;28;20047;-79
2023/12/05 06:20:28;;;;;;;14.10;7.57;;;;;;;;;;5771510;28;20098;-78
2023/12/05 06:23:19;;;;;;;21.15;6.88;;;;;;;;;;5783273;28;20058;-78
2023/12/05 06:26:10;;;;;;;11.90;6.13;;;;;;;;;;5755346;28;20062;-78
2023/12/05 06:29:05;;;;;;;11.90;5.47;;;;;;;;;;5771392;28;20058;-78
2023/12/05 06:31:57;;;;;;;8.98;5.43;;;;;;;;;;5771779;28;20066;-78
2023/12/05 06:34:48;;;;;;;11.70;7.15;;;;;;;;;;5771096;28;20070;-78
2023/12/05 06:37:38;;;;;;;13.18;7.35;;;;;;;;;;5785668;28;20039;-78
2023/12/05 06:40:29;;;;;;;10.25;6.05;;;;;;;;;;5787018;28;20054;-78
2023/12/05 06:43:20;;;;;;;7.65;4.57;;;;;;;;;;5770813;28;20066;-78
2023/12/05 06:46:11;;;;;;;14.70;7.68;;;;;;;;;;5754984;28;20053;-78
2023/12/05 06:49:03;;;;;;;16.17;6.70;;;;;;;;;;5755212;28;20043;-78
2023/12/05 06:51:57;;;;;;;12.68;6.50;;;;;;;;;;5771324;28;20558;-78
2023/12/05 06:54:48;;;;;;;10.23;5.75;;;;;;;;;;5772171;28;20062;-78
2023/12/05 06:57:39;;;;;;;17.17;7.40;;;;;;;;;;5770711;28;20121;-78
2023/12/05 07:00:30;;;;;;;14.65;5.65;;;;;;;;;;5786729;28;20051;-78
2023/12/05 07:03:22;;;;;;;16.05;6.10;;;;;;;;;;5772023;28;20381;-78
2023/12/05 07:06:13;;;;;;;14.45;5.13;;;;;;;;;;5770553;28;20424;-78
2023/12/05 07:09:04;;;;;;;10.43;5.60;;;;;;;;;;5771936;28;20079;-78
2023/12/05 07:11:55;;;;;;;7.40;5.13;;;;;;;;;;5771107;28;20417;-78
2023/12/05 07:14:46;;;;;;;10.18;6.07;;;;;;;;;;5770730;28;20520;-78
2023/12/05 07:17:37;;;;;;;13.80;5.25;;;;;;;;;;5770240;28;20551;-78
2023/12/05 07:20:28;;;;;;;16.30;6.05;;;;;;;;;;5770324;28;20053;-78
2023/12/05 07:23:19;;;;;;;10.88;5.07;;;;;;;;;;5771867;28;20058;-78
2023/12/05 07:26:10;;;;;;;15.05;7.50;;;;;;;;;;5771371;28;20051;-78
2023/12/05 07:29:01;;;;;;;9.23;5.60;;;;;;;;;;5771806;28;20067;-78
2023/12/05 07:31:52;;;;;;;17.70;8.00;;;;;;;;;;5771852;28;20040;-78
2023/12/05 07:34:43;;;;;;;10.27;5.47;;;;;;;;;;5771587;28;20413;-78
2023/12/05 07:37:34;;;;;;;12.18;6.63;;;;;;;;;;5754541;28;20130;-78
2023/12/05 07:40:24;;;;;;;15.65;8.25;;;;;;;;;;5754450;28;20473;-78
2023/12/05 07:43:16;;;;;;;12.40;7.10;;;;;;;;;;5786402;28;20055;-78
2023/12/05 07:46:07;;;;;;;15.48;8.80;;;;;;;;;;5771309;28;20172;-78
2023/12/05 07:48:58;;;;;;;12.93;7.50;;;;;;;;;;5770687;28;20050;-78
2023/12/05 07:51:49;;;;;;;14.32;6.57;;;;;;;;;;5754453;28;20182;-78
2023/12/05 07:54:40;;;;;;;14.95;6.53;;;;;;;;;;5769977;28;20043;-78
2023/12/05 07:57:31;;;;;;;10.55;6.68;;;;;;;;;;5771426;28;20047;-78
2023/12/05 08:00:22;;;;;;;13.90;5.50;;;;;;;;;;5771099;28;20063;-78
2023/12/05 08:03:14;;;;;;;11.80;6.80;;;;;;;;;;5754393;28;20106;-78
2023/12/05 08:06:07;;;;;;;10.20;6.25;;;;;;;;;;5770100;28;20054;-78
2023/12/05 08:08:59;;;;;;;24.25;13.82;;;;;;;;;;5786400;28;20429;-78
2023/12/05 08:11:50;;;;;;;25.08;16.38;;;;;;;;;;5771423;28;20043;-78
2023/12/05 08:14:41;;;;;;;20.02;11.95;;;;;;;;;;5769794;28;20424;-78
2023/12/05 08:17:31;;;;;;;12.02;7.50;;;;;;;;;;5785855;28;20043;-78
2023/12/05 08:20:22;;;;;;;32.90;6.30;;;;;;;;;;5782281;28;20051;-78
2023/12/05 08:23:13;;;;;;;22.17;11.68;;;;;;;;;;5769822;28;20078;-78
2023/12/05 08:26:05;;;;;;;22.38;9.82;;;;;;;;;;5769639;28;20062;-78
2023/12/05 08:28:55;;;;;;;19.08;9.43;;;;;;;;;;5770235;28;20047;-78
2023/12/05 08:31:46;;;;;;;19.40;8.52;;;;;;;;;;5772724;28;20047;-78
2023/12/05 08:34:37;;;;;;;23.95;8.45;;;;;;;;;;5775156;28;20413;-78
2023/12/05 08:37:31;;;;;;;21.95;10.05;;;;;;;;;;5773959;28;20087;-78
2023/12/05 08:40:22;;;;;;;26.02;10.98;;;;;;;;;;5774923;28;20051;-78
2023/12/05 08:43:13;;;;;;;19.38;8.57;;;;;;;;;;5774153;28;20043;-78
2023/12/05 08:46:04;;;;;;;11.52;5.80;;;;;;;;;;5774819;28;20175;-78
2023/12/05 08:48:58;;;;;;;15.65;7.15;;;;;;;;;;5775504;28;20051;-78
2023/12/05 08:51:49;;;;;;;15.43;7.93;;;;;;;;;;5773589;28;20453;-78
2023/12/05 08:54:40;;;;;;;24.33;7.13;;;;;;;;;;5773163;28;20109;-78
2023/12/05 08:57:31;;;;;;;20.85;9.75;;;;;;;;;;5774516;28;20527;-78
2023/12/05 09:00:21;;;;;;;21.65;7.72;;;;;;;;;;5774714;28;20125;-78
2023/12/05 09:03:13;;;;;;;21.75;8.27;;;;;;;;;;5789242;28;20528;-78
2023/12/05 09:06:04;;;;;;;22.77;9.13;;;;;;;;;;5774529;28;20057;-79
2023/12/05 09:08:55;;;;;;;10.30;6.50;;;;;;;;;;5773632;28;20075;-79
2023/12/05 09:11:46;;;;;;;21.67;9.02;;;;;;;;;;5774294;28;20047;-79
2023/12/05 09:14:36;;;;;;;11.27;6.43;;;;;;;;;;5772987;28;20174;-79
2023/12/05 09:17:28;;;;;;;20.38;9.65;;;;;;;;;;5772809;28;20047;-79
2023/12/05 09:20:19;;;;;;;53.55;17.08;;;;;;;;;;5774135;28;20051;-79
2023/12/05 09:23:11;;;;;;;70.38;22.13;;;;;;;;;;5774099;28;20102;-79
2023/12/05 09:26:04;;;;;;;63.78;22.73;;;;;;;;;;5772689;28;20055;-79
2023/12/05 09:28:54;;;;;;;41.00;13.02;;;;;;;;;;5774399;28;20461;-79
2023/12/05 09:31:45;;;;;;;84.93;27.65;;;;;;;;;;5773779;28;20051;-79
2023/12/05 09:34:36;;;;;;;96.72;32.55;;;;;;;;;;5773691;28;20054;-80
2023/12/05 09:37:27;;;;;;;116.47;30.98;;;;;;;;;;5769518;28;20122;-80
2023/12/05 09:40:19;;;;;;;44.13;16.80;;;;;;;;;;5773754;28;20637;-80
2023/12/05 09:43:10;;;;;;;64.22;18.60;;;;;;;;;;5772278;28;20109;-79
2023/12/05 09:46:05;;;;;;;67.05;21.50;;;;;;;;;;5781820;28;20054;-80
2023/12/05 09:48:59;;;;;;;50.22;15.45;;;;;;;;;;5772795;28;20449;-80
2023/12/05 09:51:51;;;;;;;14.48;7.90;;;;;;;;;;5773639;28;20397;-80
2023/12/05 09:54:43;;;;;;;71.03;22.27;;;;;;;;;;5773393;28;20040;-80
2023/12/05 09:57:36;;;;;;;61.67;19.08;;;;;;;;;;5772137;28;20437;-80
2023/12/05 10:00:28;;;;;;;163.43;47.35;;;;;;;;;;5771899;28;20051;-80
2023/12/05 10:03:21;;;;;;;184.82;57.22;;;;;;;;;;5771877;28;20496;-80
2023/12/05 10:06:14;;;;;;;235.98;78.65;;;;;;;;;;5773218;28;20051;-80
2023/12/05 10:09:09;;;;;;;295.58;86.95;;;;;;;;;;5771963;28;20074;-80
2023/12/05 10:12:00;;;;;;;199.18;56.20;;;;;;;;;;5772269;28;20051;-79
2023/12/05 10:14:53;;;;;;;133.50;45.33;;;;;;;;;;5787694;28;20070;-79
2023/12/05 10:17:46;;;;;;;175.80;58.53;;;;;;;;;;5771336;28;20408;-79
2023/12/05 10:20:38;;;;;;;49.05;15.57;;;;;;;;;;5771613;28;20493;-79
2023/12/05 10:23:29;;;;;;;54.03;19.02;;;;;;;;;;5772738;28;20389;-79
2023/12/05 10:26:20;;;;;;;86.88;31.85;;;;;;;;;;5772657;28;20047;-79
2023/12/05 10:29:11;;;;;;;129.15;41.85;;;;;;;;;;5772649;28;20508;-79
2023/12/05 10:32:02;;;;;;;142.68;39.22;;;;;;;;;;5772709;28;20058;-79
2023/12/05 10:34:56;;;;;;;156.10;49.35;;;;;;;;;;5773009;28;20054;-79
2023/12/05 10:37:47;;;;;;;221.73;74.35;;;;;;;;;;5771498;28;20047;-79
2023/12/05 10:40:54;;;;;;;223.48;65.18;;;;;;;;;;5772435;28;20497;-79
2023/12/05 10:43:57;;;;;;;138.35;43.38;;;;;;;;;;5755368;28;20061;-79
2023/12/05 10:46:47;;;;;;;252.35;71.28;;;;;;;;;;5771238;28;20047;-79
2023/12/05 10:49:42;;;;;;;133.13;41.97;;;;;;;;;;5770925;28;20047;-79
2023/12/05 10:52:34;;;;;;;85.63;30.08;;;;;;;;;;5784279;28;20564;-79
2023/12/05 10:55:25;;;;;;;274.15;91.47;;;;;;;;;;5772062;28;20050;-79
2023/12/05 10:58:16;;;;;;;238.77;75.25;;;;;;;;;;5772124;28;20059;-79
2023/12/05 11:01:11;;;;;;;223.27;62.67;;;;;;;;;;5770584;28;20055;-79
2023/12/05 11:04:05;;;;;;;124.30;46.33;;;;;;;;;;5770588;28;20117;-79
2023/12/05 11:06:56;;;;;;;139.48;41.92;;;;;;;;;;5771075;28;20394;-78
2023/12/05 11:09:47;;;;;;;105.75;37.72;;;;;;;;;;5771852;28;20666;-78
2023/12/05 11:12:40;;;;;;;126.43;33.28;;;;;;;;;;5770558;28;20076;-78
2023/12/05 11:15:39;;;;;;;125.10;36.70;;;;;;;;;;5771831;28;20062;-78
2023/12/05 11:18:42;;;;;;;142.05;40.70;;;;;;;;;;5771854;28;20043;-78
2023/12/05 11:21:55;;;;;;;123.00;38.38;;;;;;;;;;5770584;28;20071;-78
2023/12/05 11:25:21;;;;;;;76.82;26.77;;;;;;;;;;5770499;28;20047;-78
2023/12/05 11:28:41;;;;;;;76.80;25.45;;;;;;;;;;5762921;28;20047;-78
2023/12/05 11:32:29;;;;;;;31.67;12.90;;;;;;;;;;5770542;28;20516;-78
2023/12/05 11:35:52;;;;;;;44.13;18.30;;;;;;;;;;5770928;28;20074;-78
2023/12/05 11:38:43;;;;;;;32.88;13.13;;;;;;;;;;5770394;28;20431;-78
2023/12/05 11:41:34;;;;;;;15.02;9.73;;;;;;;;;;5771461;28;20039;-78
2023/12/05 11:44:26;;;;;;;31.00;12.38;;;;;;;;;;5770212;28;20539;-78
2023/12/05 11:47:28;;;;;;;51.17;17.45;;;;;;;;;;5769983;28;20134;-78
2023/12/05 11:50:19;;;;;;;54.85;16.58;;;;;;;;;;5754326;28;20059;-78
2023/12/05 11:53:14;;;;;;;30.63;11.25;;;;;;;;;;5771548;28;20051;-78
2023/12/05 11:56:18;;;;;;;36.45;14.98;;;;;;;;;;5770126;28;20050;-78
2023/12/05 11:59:11;;;;;;;19.83;9.40;;;;;;;;;;5770158;28;20066;-78
2023/12/05 12:02:02;;;;;;;19.02;6.28;;;;;;;;;;5771161;28;20051;-78
2023/12/05 12:05:06;;;;;;;19.83;6.88;;;;;;;;;;5770712;28;20047;-78
2023/12/05 12:07:57;;;;;;;12.73;8.48;;;;;;;;;;5774569;28;20051;-78
2023/12/05 12:10:49;;;;;;;18.42;10.52;;;;;;;;;;5758533;28;20103;-78
2023/12/05 12:13:39;;;;;;;17.60;8.52;;;;;;;;;;5788668;28;20062;-78
2023/12/05 12:16:30;;;;;;;7.07;4.82;;;;;;;;;;5758323;28;20046;-78
2023/12/05 12:19:21;;;;;;;9.98;4.53;;;;;;;;;;5758133;28;20071;-77
2023/12/05 12:22:12;;;;;;;14.48;6.18;;;;;;;;;;5758162;28;20073;-78
2023/12/05 12:25:11;;;;;;;14.95;7.55;;;;;;;;;;5775283;28;20051;-78
2023/12/05 12:28:04;;;;;;;20.13;8.02;;;;;;;;;;5774087;28;20059;-78
2023/12/05 12:30:59;;;;;;;28.50;7.85;;;;;;;;;;5775655;28;20110;-78
2023/12/05 12:33:50;;;;;;;17.30;9.45;;;;;;;;;;5758750;28;20043;-78
2023/12/05 12:36:41;;;;;;;12.25;6.28;;;;;;;;;;5772772;28;20090;-78
2023/12/05 12:39:36;;;;;;;16.02;5.95;;;;;;;;;;5774874;28;20043;-78
2023/12/05 12:42:28;;;;;;;11.13;6.30;;;;;;;;;;5758347;28;20043;-77
2023/12/05 12:45:20;;;;;;;4.95;4.25;;;;;;;;;;5773457;28;20082;-77
2023/12/05 12:48:10;;;;;;;11.98;4.55;;;;;;;;;;5757623;28;20051;-77
2023/12/05 12:51:02;;;;;;;7.05;3.88;;;;;;;;;;5773289;28;20069;-78
2023/12/05 12:53:53;;;;;;;12.40;5.00;;;;;;;;;;5758449;28;20058;-77
2023/12/05 12:56:44;;;;;;;8.82;4.45;;;;;;;;;;5757630;28;20062;-77
2023/12/05 12:59:36;;;;;;;17.48;7.07;;;;;;;;;;5773278;28;20532;-77
2023/12/05 13:02:31;;;;;;;10.43;4.60;;;;;;;;;;5774555;28;20055;-77
2023/12/05 13:05:39;;;;;;;11.55;5.03;;;;;;;;;;5773167;28;20054;-78
2023/12/05 13:08:31;;;;;;;8.57;5.10;;;;;;;;;;5757182;28;20051;-78
2023/12/05 13:11:22;;;;;;;9.48;5.00;;;;;;;;;;5774037;28;20046;-78
2023/12/05 13:14:16;;;;;;;6.40;4.05;;;;;;;;;;5772866;28;20402;-78
2023/12/05 13:17:07;;;;;;;10.27;3.67;;;;;;;;;;5772457;28;20051;-78
2023/12/05 13:20:08;;;;;;;4.43;4.00;;;;;;;;;;5773319;28;20051;-78
2023/12/05 13:23:00;;;;;;;9.73;4.53;;;;;;;;;;5782295;28;20158;-78
2023/12/05 13:25:51;;;;;;;14.43;3.78;;;;;;;;;;5788709;28;20050;-78
2023/12/05 13:28:42;;;;;;;7.22;4.15;;;;;;;;;;5787459;28;20071;-78
2023/12/05 13:31:33;;;;;;;10.10;5.10;;;;;;;;;;5773979;28;20051;-78
2023/12/05 13:34:23;;;;;;;7.40;3.45;;;;;;;;;;5772453;28;20054;-78
2023/12/05 13:37:14;;;;;;;14.85;6.20;;;;;;;;;;5773723;28;20055;-78
2023/12/05 13:40:06;;;;;;;14.10;5.03;;;;;;;;;;5773684;28;20054;-78
2023/12/05 13:42:57;;;;;;;10.85;5.97;;;;;;;;;;5772672;28;20524;-78
2023/12/05 13:45:48;;;;;;;18.63;5.95;;;;;;;;;;5756236;28;20043;-78
2023/12/05 13:48:39;;;;;;;13.02;4.47;;;;;;;;;;5773439;28;20054;-78
2023/12/05 13:51:31;;;;;;;10.27;3.70;;;;;;;;;;5772104;28;20043;-78
2023/12/05 13:54:22;;;;;;;10.05;3.88;;;;;;;;;;5784347;28;20121;-78
2023/12/05 13:57:13;;;;;;;9.25;5.22;;;;;;;;;;5788053;28;20050;-78
2023/12/05 14:00:05;;;;;;;8.80;4.47;;;;;;;;;;5772270;28;20055;-78
2023/12/05 14:02:57;;;;;;;9.15;3.47;;;;;;;;;;5773498;28;20047;-78
2023/12/05 14:05:48;;;;;;;7.32;3.78;;;;;;;;;;5771816;28;20412;-78
2023/12/05 14:08:40;;;;;;;10.68;4.53;;;;;;;;;;5771535;28;20039;-78
2023/12/05 14:11:31;;;;;;;7.43;4.65;;;;;;;;;;5772895;28;20050;-78
2023/12/05 14:14:22;;;;;;;10.55;6.78;;;;;;;;;;5784055;28;20043;-78
2023/12/05 14:17:14;;;;;;;11.95;5.70;;;;;;;;;;5772693;28;20047;-78
2023/12/05 14:20:06;;;;;;;13.35;4.43;;;;;;;;;;5756057;28;20059;-78
2023/12/05 14:22:57;;;;;;;12.73;5.88;;;;;;;;;;5771961;28;20054;-78
2023/12/05 14:25:48;;;;;;;9.80;6.35;;;;;;;;;;5787434;28;20047;-78
2023/12/05 14:28:39;;;;;;;7.57;4.82;;;;;;;;;;5770682;28;20121;-78
2023/12/05 14:31:29;;;;;;;10.73;4.63;;;;;;;;;;5771516;28;20050;-78
2023/12/05 14:34:20;;;;;;;9.65;4.38;;;;;;;;;;5783499;28;20054;-79
2023/12/05 14:37:11;;;;;;;8.57;3.88;;;;;;;;;;5755365;28;20055;-78
2023/12/05 14:40:02;;;;;;;48.08;15.02;;;;;;;;;;5771250;28;20051;-78
2023/12/05 14:42:53;;;;;;;45.25;17.67;;;;;;;;;;5779886;28;20047;-78
2023/12/05 14:45:44;;;;;;;46.13;16.23;;;;;;;;;;5787030;28;20047;-78
2023/12/05 14:48:35;;;;;;;46.38;17.85;;;;;;;;;;5771110;28;20057;-78
2023/12/05 14:51:26;;;;;;;37.78;16.48;;;;;;;;;;5755002;28;20051;-78
2023/12/05 14:54:17;;;;;;;76.85;16.27;;;;;;;;;;5782537;28;20054;-78
2023/12/05 14:57:08;;;;;;;21.20;6.97;;;;;;;;;;5755088;28;20390;-79
2023/12/05 14:59:58;;;;;;;12.20;5.47;;;;;;;;;;5755477;28;20055;-79
2023/12/05 15:02:49;;;;;;;13.15;6.85;;;;;;;;;;5772055;28;20047;-78
2023/12/05 15:05:40;;;;;;;9.20;4.57;;;;;;;;;;5772014;28;20047;-78
2023/12/05 15:08:31;;;;;;;9.88;4.88;;;;;;;;;;5770688;28;20468;-78
2023/12/05 15:11:22;;;;;;;10.20;5.55;;;;;;;;;;5770592;28;20047;-78
2023/12/05 15:14:13;;;;;;;16.58;6.13;;;;;;;;;;5770709;28;20501;-78
2023/12/05 15:17:04;;;;;;;9.30;5.70;;;;;;;;;;5770610;28;20059;-79
2023/12/05 15:19:55;;;;;;;5.47;3.55;;;;;;;;;;5755135;28;20413;-78
2023/12/05 15:23:06;;;;;;;15.02;5.43;;;;;;;;;;5771462;28;20074;-78
2023/12/05 15:25:59;;;;;;;41.65;17.02;;;;;;;;;;5772205;28;20051;-78
2023/12/05 15:28:50;;;;;;;45.05;18.40;;;;;;;;;;5755034;28;20130;-78
2023/12/05 15:31:42;;;;;;;52.40;17.92;;;;;;;;;;5770158;28;20051;-78
2023/12/05 15:34:33;;;;;;;28.88;12.25;;;;;;;;;;5770500;28;20054;-78
2023/12/05 15:37:24;;;;;;;22.17;9.05;;;;;;;;;;5767870;28;20122;-78
2023/12/05 15:40:16;;;;;;;30.17;9.55;;;;;;;;;;5776338;28;20051;-78
2023/12/05 15:43:06;;;;;;;27.17;8.15;;;;;;;;;;5779028;28;20109;-78
2023/12/05 15:45:57;;;;;;;24.80;9.55;;;;;;;;;;5778267;28;20114;-78
2023/12/05 15:48:49;;;;;;;30.23;10.38;;;;;;;;;;5761718;28;20420;-78
2023/12/05 15:51:40;;;;;;;34.83;11.60;;;;;;;;;;5778912;28;20050;-78
2023/12/05 15:54:32;;;;;;;54.88;17.48;;;;;;;;;;5777652;28;20464;-78
2023/12/05 15:57:24;;;;;;;52.90;17.65;;;;;;;;;;5778820;28;20059;-78
2023/12/05 16:00:15;;;;;;;36.28;11.75;;;;;;;;;;5761912;28;20055;-78
2023/12/05 16:03:06;;;;;;;29.65;11.23;;;;;;;;;;5777474;28;20609;-78
2023/12/05 16:05:58;;;;;;;15.60;8.48;;;;;;;;;;5762251;28;20050;-78
2023/12/05 16:08:49;;;;;;;32.42;10.73;;;;;;;;;;5778845;28;20538;-78
2023/12/05 16:11:40;;;;;;;27.02;11.93;;;;;;;;;;5777415;28;20051;-78
2023/12/05 16:14:31;;;;;;;26.95;11.20;;;;;;;;;;5790968;28;20069;-78
2023/12/05 16:17:22;;;;;;;28.02;12.13;;;;;;;;;;5777125;28;20047;-78
2023/12/05 16:20:14;;;;;;;25.98;12.32;;;;;;;;;;5777446;28;20051;-78
2023/12/05 16:23:05;;;;;;;28.48;13.57;;;;;;;;;;5778537;28;20047;-78
2023/12/05 16:25:59;;;;;;;31.23;12.10;;;;;;;;;;5761869;28;20047;-78
2023/12/05 16:28:50;;;;;;;24.65;11.48;;;;;;;;;;5777228;28;20120;-78
2023/12/05 16:31:41;;;;;;;37.10;12.13;;;;;;;;;;5777288;28;20051;-78
2023/12/05 16:34:32;;;;;;;18.13;9.75;;;;;;;;;;5777439;28;20051;-78
2023/12/05 16:37:23;;;;;;;23.73;10.02;;;;;;;;;;5761250;28;20538;-78
2023/12/05 16:40:14;;;;;;;34.80;12.88;;;;;;;;;;5761406;28;20468;-78
2023/12/05 16:43:05;;;;;;;28.23;11.00;;;;;;;;;;5778445;28;20129;-78
2023/12/05 16:45:56;;;;;;;39.83;13.93;;;;;;;;;;5786219;28;20050;-77
2023/12/05 16:48:48;;;;;;;31.60;11.50;;;;;;;;;;5792899;28;20058;-78
2023/12/05 16:51:40;;;;;;;66.60;18.75;;;;;;;;;;5790194;28;20047;-78
2023/12/05 16:54:31;;;;;;;40.88;16.98;;;;;;;;;;5773575;28;20140;-78